Aviation Digital Data Service (ADDS)

Output produced by METARs form (1330 UTC 16 August 2017)
found at http://aviationweather.gov/adds/metars/
 
KSSI 161120Z 1612/1712 26006KT P6SM FEW250 
     FM161300 29009KT P6SM SCT025 
     FM161900 12010KT P6SM SCT045 
     FM162300 18007KT P6SM FEW050 SCT250